Startpagina
METAR-TAF:

METAR-TAF

Vliegvelden :

Funafuti, Tuvalu

breedte: 08-31S, lengte: 179-13E, hoogte: 1 m

Actueel weer

Dit bericht is 7 minuten geleden gemaakt, om 07:00 UTC
Wind 7 kt uit het westzuidwesten
Temperatuur 29°C
Vochtigheid 79%
Druk 1008 hPa
Zicht 10 km of meer
Verspreide wolken op 2000 ft, Stapelwolken.

METAR: NGFU 270700Z 24007KT 9999 SCT020TCU 29/25 Q1008

Tijdstip: 19:07 (07:07 UTC)

Verwachting

Dit bericht is 1 uur en het 41 minuten geleden gemaakt, om 05:26 UTC
Verwachting geldig van 27 om 06 UTC tot 28 om 06 UTC
Wind 8 kt uit het westzuidwesten
Zicht 10 km of meer
Verspreide wolken op 1800 ft
Gebroken wolken op 10000 ft
lichte regenbuien
Kans 30% :
Tijdelijke
tussen 27 en het 06 UTC
Zicht: 5000 m
Gebroken wolken op 1500 ft
Weinig wolken op 1700 ft, Cumulonimbus.
onweer, regen

TAF: NGFU 270526Z 2706/2806 25008KT 9999 -SHRA SCT018 BKN100 PROB30 TEMPO 2706 /2724 5000 TSRA BKN015 FEW017CB

Waarnemingen en weersverwachtingen van meer dan 4000 vliegvelden (METAR en TAF).

De beschikbare stations zijn de gele en rode punten op de kaart.

Ga met uw muis naar het station om de naam te zien.

Klik dan om waarnemingen en weersverwachtingen te zien.

kaart wijzigen: klik op de groene knoppen met een zwart kruis om in te zoomen, op de groene knop met een streepje om uit te zoomen of op de groene pijlen voor aangrenzende kaarten.


METAR-TAF: